This is the latest recevied weather packets stored in our database for station/object KD0ISH. If no packets are shown the sender has not sent any weather packets the latest 10 day(s).
| Time | Temp. | Humidity | Pressure | Rain* | Wind** | Luminosity | Snow |
|---|---|---|---|---|---|---|---|
| 1777331547 | 25.56° C | 62% | 1007 hPa | 0 mm | - | 157 W/m² | - |
| 1777331245 | 25.56° C | 64% | 1007.1 hPa | 0 mm | - | 169 W/m² | - |
| 1777330942 | 25.56° C | 64% | 1006.9 hPa | 0 mm | - | 184 W/m² | - |
| 1777330638 | 25.56° C | 64% | 1006.7 hPa | 0 mm | - | 196 W/m² | - |
| 1777330336 | 25.56° C | 65% | 1006.7 hPa | 0 mm | - | 225 W/m² | - |
| 1777330034 | 25.56° C | 65% | 1006.6 hPa | 0 mm | - | 230 W/m² | - |
| 1777329733 | 25.56° C | 63% | 1006.9 hPa | 0 mm | - | 216 W/m² | - |
| 1777329431 | 26.11° C | 61% | 1006.4 hPa | 0 mm | - | 266 W/m² | - |
| 1777329128 | 26.11° C | 60% | 1006.3 hPa | 0 mm | - | 278 W/m² | - |
| 1777328825 | 26.11° C | 59% | 1006 hPa | 0 mm | - | 280 W/m² | - |
| 1777328523 | 26.11° C | 58% | 1005.8 hPa | 0 mm | - | 294 W/m² | - |
| 1777328221 | 26.11° C | 57% | 1005.8 hPa | 0 mm | - | 304 W/m² | - |
| 1777327919 | 26.11° C | 58% | 1005.7 hPa | 0 mm | - | 342 W/m² | - |
| 1777327616 | 26.67° C | 58% | 1005.5 hPa | 0 mm | - | 332 W/m² | - |
| 1777327314 | 26.67° C | 57% | 1005.6 hPa | 0 mm | - | 386 W/m² | - |
| 1777327011 | 26.11° C | 58% | 1005.6 hPa | 0 mm | - | 449 W/m² | - |
| 1777326708 | 25.56° C | 60% | 1005.3 hPa | 0 mm | - | 375 W/m² | - |
| 1777326405 | 26.67° C | 57% | 1005.3 hPa | 0 mm | - | 139 W/m² | - |
| 1777326103 | 27.78° C | 57% | 1005 hPa | 0 mm | - | 56 W/m² | - |
| 1777325800 | 28.33° C | 55% | 1004.6 hPa | 0 mm | - | 46 W/m² | - |
| 1777325498 | 28.89° C | 54% | 1004.5 hPa | 0 mm | - | 59 W/m² | - |
| 1777325196 | 29.44° C | 52% | 1004.4 hPa | 0 mm | - | 101 W/m² | - |
| 1777324892 | 30° C | 51% | 1004.3 hPa | 0 mm | - | 486 W/m² | - |
| 1777324590 | 29.44° C | 50% | 1004.3 hPa | 0 mm | - | 521 W/m² | - |
| 1777324287 | 30° C | 49% | 1004.1 hPa | 0 mm | - | 413 W/m² | - |
* Rain latest hour (hover to see other rain measurements)
** Current wind speed in m/s (hover to see current wind gust speed)